Flight Track Log - Related Links

Times and Time Zones

All times are in EDT time to prevent confusion due to time zone crossing. See the SIA800 flight status page for this flight to view local times or setup timezone preferences in your user account.


Time Position Orientation Groundspeed Altitude Reporting Facility
EDT Latitude Longitude Course Direction KTS MPH feet Rate Location/Type
Fri 01:15:32 PM 1.4178 104.0040 15° North  Level Estimated
Fri 01:16:32 PM 1.5343 104.0351 15° North  Level Estimated
Fri 01:17:32 PM 1.6508 104.0661 15° North  Level Estimated
Fri 01:18:32 PM 1.7672 104.0972 15° North  Level Estimated
Fri 01:19:32 PM 1.8837 104.1283 15° North  Level Estimated
Fri 01:20:32 PM 2.0002 104.1593 15° North  Level Estimated
Fri 01:21:32 PM 2.1167 104.1904 15° North  Level Estimated
Fri 01:22:32 PM 2.2331 104.2215 15° North  Level Estimated
Fri 01:23:32 PM 2.3496 104.2526 15° North  Level Estimated
Fri 01:24:32 PM 2.4661 104.2837 15° North  Level Estimated
Fri 01:25:32 PM 2.5825 104.3148 15° North  Level Estimated
Fri 01:26:32 PM 2.6990 104.3459 15° North  Level Estimated
Fri 01:27:32 PM 2.8154 104.3770 15° North  Level Estimated
Fri 01:28:32 PM 2.9319 104.4081 15° North  Level Estimated
Fri 01:29:32 PM 3.0484 104.4392 15° North  Level Estimated
Fri 01:30:32 PM 3.1648 104.4704 15° North  Level Estimated
Fri 01:31:32 PM 3.2813 104.5015 15° North  Level Estimated
Fri 01:32:32 PM 3.3977 104.5327 15° North  Level Estimated
Fri 01:33:32 PM 3.5142 104.5638 15° North  Level Estimated
Fri 01:34:32 PM 3.6307 104.5950 15° North  Level Estimated
Fri 01:35:32 PM 3.7471 104.6261 15° North  Level Estimated
Fri 01:36:32 PM 3.8636 104.6573 15° North  Level Estimated
Fri 01:37:32 PM 3.9800 104.6885 15° North  Level Estimated
Fri 01:38:32 PM 4.0965 104.7197 15° North  Level Estimated
Fri 01:39:32 PM 4.2129 104.7509 15° North  Level Estimated
Fri 01:40:32 PM 4.3294 104.7821 15° North  Level Estimated
Fri 01:41:32 PM 4.4458 104.8133 15° North  Level Estimated
Fri 01:42:32 PM 4.5623 104.8446 15° North  Level Estimated
Fri 01:43:32 PM 4.6787 104.8758 15° North  Level Estimated
Fri 01:44:32 PM 4.7952 104.9071 15° North  Level Estimated
Fri 01:45:32 PM 4.9116 104.9383 15° North  Level Estimated
Fri 01:46:32 PM 5.0281 104.9696 15° North  Level Estimated
Fri 01:47:32 PM 5.1445 105.0009 15° North  Level Estimated
Fri 01:48:32 PM 5.2610 105.0322 15° North  Level Estimated
Fri 01:49:32 PM 5.3774 105.0635 15° North  Level Estimated
Fri 01:50:32 PM 5.4938 105.0948 15° North  Level Estimated
Fri 01:51:32 PM 5.6103 105.1261 15° North  Level Estimated
Fri 01:52:32 PM 5.7267 105.1575 15° North  Level Estimated
Fri 01:53:32 PM 5.8431 105.1888 15° North  Level Estimated
Fri 01:54:32 PM 5.9595 105.2202 15° North  Level Estimated
Fri 01:55:32 PM 6.0760 105.2516 15° North  Level Estimated
Fri 01:56:32 PM 6.1924 105.2830 15° North  Level Estimated
Fri 01:57:32 PM 6.3088 105.3144 15° North  Level Estimated
Fri 01:58:32 PM 6.4253 105.3458 15° North  Level Estimated
Fri 01:59:32 PM 6.5417 105.3773 15° North  Level Estimated
Fri 02:00:32 PM 6.6581 105.4087 15° North  Level Estimated
Fri 02:01:32 PM 6.7745 105.4402 15° North  Level Estimated
Fri 02:02:32 PM 6.8909 105.4717 15° North  Level Estimated
Fri 02:03:32 PM 7.0073 105.5032 15° North  Level Estimated
Fri 02:04:32 PM 7.1237 105.5347 15° North  Level Estimated
Fri 02:05:32 PM 7.2401 105.5662 15° North  Level Estimated
Fri 02:06:32 PM 7.3566 105.5977 15° North  Level Estimated
Fri 02:07:32 PM 7.4730 105.6293 15° North  Level Estimated
Fri 02:08:32 PM 7.5894 105.6609 15° North  Level Estimated
Fri 02:09:32 PM 7.7058 105.6925 15° North  Level Estimated
Fri 02:10:32 PM 7.8222 105.7241 15° North  Level Estimated
Fri 02:11:32 PM 7.9385 105.7558 15° North  Level Estimated
Fri 02:12:32 PM 8.0549 105.7874 15° North  Level Estimated
Fri 02:13:32 PM 8.1713 105.8191 15° North  Level Estimated
Fri 02:14:32 PM 8.2877 105.8508 15° North  Level Estimated
Fri 02:15:32 PM 8.4041 105.8825 15° North  Level Estimated
Fri 02:16:32 PM 8.5205 105.9142 15° North  Level Estimated
Fri 02:17:32 PM 8.6369 105.9459 15° North  Level Estimated
Fri 02:18:32 PM 8.7532 105.9777 15° North  Level Estimated
Fri 02:19:32 PM 8.8696 106.0095 15° North  Level Estimated
Fri 02:20:32 PM 8.9860 106.0413 15° North  Level Estimated
Fri 02:21:32 PM 9.1024 106.0731 15° North  Level Estimated
Fri 02:22:32 PM 9.2187 106.1050 15° North  Level Estimated
Fri 02:23:32 PM 9.3351 106.1368 15° North  Level Estimated
Fri 02:24:32 PM 9.4514 106.1687 15° North  Level Estimated
Fri 02:25:32 PM 9.5678 106.2006 15° North  Level Estimated
Fri 02:26:32 PM 9.6841 106.2326 15° North  Level Estimated
Fri 02:27:32 PM 9.8005 106.2645 15° North  Level Estimated
Fri 02:28:32 PM 9.9169 106.2965 15° North  Level Estimated
Fri 02:29:32 PM 10.0332 106.3285 15° North  Level Estimated
Fri 02:30:32 PM 10.1495 106.3605 15° North  Level Estimated
Fri 02:31:32 PM 10.2659 106.3926 15° North  Level Estimated
Fri 02:32:32 PM 10.3822 106.4246 15° North  Level Estimated
Fri 02:33:32 PM 10.4986 106.4567 15° North  Level Estimated
Fri 02:34:32 PM 10.6149 106.4888 15° North  Level Estimated
Fri 02:35:32 PM 10.7312 106.5210 15° North  Level Estimated
Fri 02:36:32 PM 10.8475 106.5531 15° North  Level Estimated
Fri 02:37:32 PM 10.9639 106.5853 15° North  Level Estimated
Fri 02:38:32 PM 11.0802 106.6176 15° North  Level Estimated
Fri 02:39:32 PM 11.1965 106.6498 15° North  Level Estimated
Fri 02:40:32 PM 11.3128 106.6821 15° North  Level Estimated
Fri 02:41:32 PM 11.4291 106.7144 15° North  Level Estimated
Fri 02:42:32 PM 11.5454 106.7467 15° North  Level Estimated
Fri 02:43:32 PM 11.6617 106.7790 15° North  Level Estimated
Fri 02:44:32 PM 11.7780 106.8114 15° North  Level Estimated
Fri 02:45:32 PM 11.8943 106.8438 15° North  Level Estimated
Fri 02:46:32 PM 12.0106 106.8762 15° North  Level Estimated
Fri 02:47:32 PM 12.1269 106.9087 15° North  Level Estimated
Fri 02:48:32 PM 12.2431 106.9412 15° North  Level Estimated
Fri 02:49:32 PM 12.3594 106.9737 15° North  Level Estimated
Fri 02:50:32 PM 12.4757 107.0062 15° North  Level Estimated
Fri 02:51:32 PM 12.5920 107.0388 15° North  Level Estimated
Fri 02:52:32 PM 12.7082 107.0714 15° North  Level Estimated
Fri 02:53:32 PM 12.8245 107.1040 15° North  Level Estimated
Fri 02:54:32 PM 12.9407 107.1367 15° North  Level Estimated
Fri 02:55:32 PM 13.0570 107.1694 15° North  Level Estimated
Fri 02:56:32 PM 13.1732 107.2021 15° North  Level Estimated
Fri 02:57:32 PM 13.2895 107.2349 15° North  Level Estimated
Fri 02:58:32 PM 13.4057 107.2677 15° North  Level Estimated
Fri 02:59:32 PM 13.5220 107.3005 15° North  Level Estimated
Fri 03:00:32 PM 13.6382 107.3333 15° North  Level Estimated
Fri 03:01:32 PM 13.7544 107.3662 15° North  Level Estimated
Fri 03:02:32 PM 13.8706 107.3991 15° North  Level Estimated
Fri 03:03:32 PM 13.9869 107.4321 15° North  Level Estimated
Fri 03:04:32 PM 14.1031 107.4651 15° North  Level Estimated
Fri 03:05:32 PM 14.2193 107.4981 15° North  Level Estimated
Fri 03:06:32 PM 14.3355 107.5311 15° North  Level Estimated
Fri 03:07:32 PM 14.4517 107.5642 15° North  Level Estimated
Fri 03:08:32 PM 14.5679 107.5974 15° North  Level Estimated
Fri 03:09:32 PM 14.6841 107.6305 15° North  Level Estimated
Fri 03:10:32 PM 14.8003 107.6637 15° North  Level Estimated
Fri 03:11:32 PM 14.9164 107.6969 15° North  Level Estimated
Fri 03:12:32 PM 15.0326 107.7302 15° North  Level Estimated
Fri 03:13:32 PM 15.1488 107.7635 15° North  Level Estimated
Fri 03:14:32 PM 15.2650 107.7968 15° North  Level Estimated
Fri 03:15:32 PM 15.3811 107.8302 15° North  Level Estimated
Fri 03:16:32 PM 15.4973 107.8636 15° North  Level Estimated
Fri 03:17:32 PM 15.6134 107.8970 16° North  Level Estimated
Fri 03:18:32 PM 15.7296 107.9305 16° North  Level Estimated
Fri 03:19:32 PM 15.8457 107.9640 16° North  Level Estimated
Fri 03:20:32 PM 15.9619 107.9976 16° North  Level Estimated
Fri 03:21:32 PM 16.0780 108.0312 16° North  Level Estimated
Fri 03:22:32 PM 16.1941 108.0648 16° North  Level Estimated
Fri 03:23:32 PM 16.3102 108.0985 16° North  Level Estimated
Fri 03:24:32 PM 16.4264 108.1322 16° North  Level Estimated
Fri 03:25:32 PM 16.5425 108.1660 16° North  Level Estimated
Fri 03:26:32 PM 16.6586 108.1998 16° North  Level Estimated
Fri 03:27:32 PM 16.7747 108.2336 16° North  Level Estimated
Fri 03:28:32 PM 16.8908 108.2675 16° North  Level Estimated
Fri 03:29:32 PM 17.0069 108.3014 16° North  Level Estimated
Fri 03:30:32 PM 17.1229 108.3354 16° North  Level Estimated
Fri 03:31:32 PM 17.2390 108.3694 16° North  Level Estimated
Fri 03:32:32 PM 17.3551 108.4034 16° North  Level Estimated
Fri 03:33:32 PM 17.4712 108.4375 16° North  Level Estimated
Fri 03:34:32 PM 17.5872 108.4717 16° North  Level Estimated
Fri 03:35:32 PM 17.7033 108.5058 16° North  Level Estimated
Fri 03:36:32 PM 17.8193 108.5401 16° North  Level Estimated
Fri 03:37:32 PM 17.9354 108.5743 16° North  Level Estimated
Fri 03:38:32 PM 18.0514 108.6087 16° North  Level Estimated
Fri 03:39:32 PM 18.1674 108.6430 16° North  Level Estimated
Fri 03:40:32 PM 18.2835 108.6774 16° North  Level Estimated
Fri 03:41:32 PM 18.3995 108.7119 16° North  Level Estimated
Fri 03:42:32 PM 18.5155 108.7464 16° North  Level Estimated
Fri 03:43:32 PM 18.6315 108.7809 16° North  Level Estimated
Fri 03:44:32 PM 18.7475 108.8155 16° North  Level Estimated
Fri 03:45:32 PM 18.8635 108.8501 16° North  Level Estimated
Fri 03:46:32 PM 18.9795 108.8848 16° North  Level Estimated
Fri 03:47:32 PM 19.0955 108.9195 16° North  Level Estimated
Fri 03:48:32 PM 19.2114 108.9543 16° North  Level Estimated
Fri 03:49:32 PM 19.3274 108.9892 16° North  Level Estimated
Fri 03:50:32 PM 19.4434 109.0240 16° North  Level Estimated
Fri 03:51:32 PM 19.5593 109.0590 16° North  Level Estimated
Fri 03:52:32 PM 19.6753 109.0939 16° North  Level Estimated
Fri 03:53:32 PM 19.7912 109.1290 16° North  Level Estimated
Fri 03:54:32 PM 19.9071 109.1641 16° North  Level Estimated
Fri 03:55:32 PM 20.0231 109.1992 16° North  Level Estimated
Fri 03:56:32 PM 20.1390 109.2344 16° North  Level Estimated
Fri 03:57:32 PM 20.2549 109.2696 16° North  Level Estimated
Fri 03:58:32 PM 20.3708 109.3049 16° North  Level Estimated
Fri 03:59:32 PM 20.4867 109.3403 16° North  Level Estimated
Fri 04:00:32 PM 20.6026 109.3757 16° North  Level Estimated
Fri 04:01:32 PM 20.7185 109.4111 16° North  Level Estimated
Fri 04:02:32 PM 20.8344 109.4466 16° North  Level Estimated
Fri 04:03:32 PM 20.9502 109.4822 16° North  Level Estimated
Fri 04:04:32 PM 21.0661 109.5178 16° North  Level Estimated
Fri 04:05:32 PM 21.1819 109.5535 16° North  Level Estimated
Fri 04:06:32 PM 21.2978 109.5892 16° North  Level Estimated
Fri 04:07:32 PM 21.4136 109.6250 16° North  Level Estimated
Fri 04:08:32 PM 21.5294 109.6608 16° North  Level Estimated
Fri 04:09:32 PM 21.6453 109.6967 16° North  Level Estimated
Fri 04:10:32 PM 21.7611 109.7327 16° North  Level Estimated
Fri 04:11:32 PM 21.8769 109.7687 16° North  Level Estimated
Fri 04:12:32 PM 21.9927 109.8047 16° North  Level Estimated
Fri 04:13:32 PM 22.1085 109.8409 16° North  Level Estimated
Fri 04:14:32 PM 22.2243 109.8771 16° North  Level Estimated
Fri 04:15:32 PM 22.3400 109.9133 16° North  Level Estimated
Fri 04:16:32 PM 22.4558 109.9496 16° North  Level Estimated
Fri 04:17:32 PM 22.5716 109.9860 16° North  Level Estimated
Fri 04:18:32 PM 22.6873 110.0224 16° North  Level Estimated
Fri 04:19:32 PM 22.8031 110.0589 16° North  Level Estimated
Fri 04:20:32 PM 22.9188 110.0955 16° North  Level Estimated
Fri 04:21:32 PM 23.0345 110.1321 16° North  Level Estimated
Fri 04:22:32 PM 23.1503 110.1688 16° North  Level Estimated
Fri 04:23:32 PM 23.2660 110.2055 16° North  Level Estimated
Fri 04:24:32 PM 23.3817 110.2423 16° North  Level Estimated
Fri 04:25:32 PM 23.4974 110.2792 16° North  Level Estimated
Fri 04:26:32 PM 23.6131 110.3161 16° North  Level Estimated
Fri 04:27:32 PM 23.7287 110.3531 16° North  Level Estimated
Fri 04:28:32 PM 23.8444 110.3902 16° North  Level Estimated
Fri 04:29:32 PM 23.9601 110.4274 16° North  Level Estimated
Fri 04:30:32 PM 24.0757 110.4646 16° North  Level Estimated
Fri 04:31:32 PM 24.1914 110.5018 16° North  Level Estimated
Fri 04:32:32 PM 24.3070 110.5392 16° North  Level Estimated
Fri 04:33:32 PM 24.4226 110.5766 16° North  Level Estimated
Fri 04:34:32 PM 24.5382 110.6140 16° North  Level Estimated
Fri 04:35:32 PM 24.6538 110.6516 16° North  Level Estimated
Fri 04:36:32 PM 24.7694 110.6892 16° North  Level Estimated
Fri 04:37:32 PM 24.8850 110.7269 16° North  Level Estimated
Fri 04:38:32 PM 25.0005 110.7646 17° North  Level Estimated
Fri 04:39:32 PM 25.1161 110.8025 17° North  Level Estimated
Fri 04:40:32 PM 25.2317 110.8403 17° North  Level Estimated
Fri 04:41:32 PM 25.3472 110.8783 17° North  Level Estimated
Fri 04:42:32 PM 25.4628 110.9164 17° North  Level Estimated
Fri 04:43:32 PM 25.5783 110.9545 17° North  Level Estimated
Fri 04:44:32 PM 25.6938 110.9927 17° North  Level Estimated
Fri 04:45:32 PM 25.8093 111.0309 17° North  Level Estimated
Fri 04:46:32 PM 25.9248 111.0692 17° North  Level Estimated
Fri 04:47:32 PM 26.0403 111.1077 17° North  Level Estimated
Fri 04:48:32 PM 26.1558 111.1461 17° North  Level Estimated
Fri 04:49:32 PM 26.2713 111.1847 17° North  Level Estimated
Fri 04:50:32 PM 26.3867 111.2233 17° North  Level Estimated
Fri 04:51:32 PM 26.5022 111.2621 17° North  Level Estimated
Fri 04:52:32 PM 26.6176 111.3009 17° North  Level Estimated
Fri 04:53:32 PM 26.7330 111.3397 17° North  Level Estimated
Fri 04:54:32 PM 26.8485 111.3787 17° North  Level Estimated
Fri 04:55:32 PM 26.9639 111.4177 17° North  Level Estimated
Fri 04:56:32 PM 27.0793 111.4568 17° North  Level Estimated
Fri 04:57:32 PM 27.1946 111.4960 17° North  Level Estimated
Fri 04:58:32 PM 27.3100 111.5353 17° North  Level Estimated
Fri 04:59:32 PM 27.4254 111.5746 17° North  Level Estimated
Fri 05:00:32 PM 27.5407 111.6141 17° North  Level Estimated
Fri 05:01:32 PM 27.6560 111.6536 17° North  Level Estimated
Fri 05:02:32 PM 27.7714 111.6932 17° North  Level Estimated
Fri 05:03:32 PM 27.8867 111.7329 17° North  Level Estimated
Fri 05:04:32 PM 28.0020 111.7727 17° North  Level Estimated
Fri 05:05:32 PM 28.1173 111.8125 17° North  Level Estimated
Fri 05:06:32 PM 28.2326 111.8524 17° North  Level Estimated
Fri 05:07:32 PM 28.3478 111.8925 17° North  Level Estimated
Fri 05:08:32 PM 28.4631 111.9326 17° North  Level Estimated
Fri 05:09:32 PM 28.5783 111.9728 17° North  Level Estimated
Fri 05:10:32 PM 28.6936 112.0131 17° North  Level Estimated
Fri 05:11:32 PM 28.8088 112.0535 17° North  Level Estimated
Fri 05:12:32 PM 28.9240 112.0939 17° North  Level Estimated
Fri 05:13:32 PM 29.0392 112.1345 17° North  Level Estimated
Fri 05:14:32 PM 29.1544 112.1752 17° North  Level Estimated
Fri 05:15:32 PM 29.2696 112.2159 17° North  Level Estimated
Fri 05:16:32 PM 29.3847 112.2568 17° North  Level Estimated
Fri 05:17:32 PM 29.4999 112.2977 17° North  Level Estimated
Fri 05:18:32 PM 29.6150 112.3387 17° North  Level Estimated
Fri 05:19:32 PM 29.7301 112.3798 17° North  Level Estimated
Fri 05:20:32 PM 29.8452 112.4210 17° North  Level Estimated
Fri 05:21:32 PM 29.9603 112.4623 17° North  Level Estimated
Fri 05:22:32 PM 30.0754 112.5037 17° North  Level Estimated
Fri 05:23:32 PM 30.1905 112.5452 17° North  Level Estimated
Fri 05:24:32 PM 30.3056 112.5868 17° North  Level Estimated
Fri 05:25:32 PM 30.4206 112.6285 17° North  Level Estimated
Fri 05:26:32 PM 30.5356 112.6703 17° North  Level Estimated
Fri 05:27:32 PM 30.6507 112.7122 17° North  Level Estimated
Fri 05:28:32 PM 30.7657 112.7542 17° North  Level Estimated
Fri 05:29:32 PM 30.8806 112.7963 17° North  Level Estimated
Fri 05:30:32 PM 30.9956 112.8384 17° North  Level Estimated
Fri 05:31:32 PM 31.1106 112.8807 18° North  Level Estimated
Fri 05:32:32 PM 31.2255 112.9231 18° North  Level Estimated
Fri 05:33:32 PM 31.3405 112.9656 18° North  Level Estimated
Fri 05:34:32 PM 31.4554 113.0082 18° North  Level Estimated
Fri 05:35:32 PM 31.5703 113.0509 18° North  Level Estimated
Fri 05:36:32 PM 31.6852 113.0937 18° North  Level Estimated
Fri 05:37:32 PM 31.8001 113.1366 18° North  Level Estimated
Fri 05:38:32 PM 31.9149 113.1797 18° North  Level Estimated
Fri 05:39:32 PM 32.0298 113.2228 18° North  Level Estimated
Fri 05:40:32 PM 32.1446 113.2660 18° North  Level Estimated
Fri 05:41:32 PM 32.2594 113.3094 18° North  Level Estimated
Fri 05:42:32 PM 32.3743 113.3529 18° North  Level Estimated
Fri 05:43:32 PM 32.4891 113.3964 18° North  Level Estimated
Fri 05:44:32 PM 32.6038 113.4401 18° North  Level Estimated
Fri 05:45:32 PM 32.7186 113.4839 18° North  Level Estimated
Fri 05:46:32 PM 32.8333 113.5278 18° North  Level Estimated
Fri 05:47:32 PM 32.9481 113.5718 18° North  Level Estimated
Fri 05:48:32 PM 33.0628 113.6159 18° North  Level Estimated
Fri 05:49:32 PM 33.1775 113.6602 18° North  Level Estimated
Fri 05:50:32 PM 33.2922 113.7046 18° North  Level Estimated
Fri 05:51:32 PM 33.4068 113.7490 18° North  Level Estimated
Fri 05:52:32 PM 33.5215 113.7936 18° North  Level Estimated
Fri 05:53:32 PM 33.6361 113.8383 18° North  Level Estimated
Fri 05:54:32 PM 33.7507 113.8832 18° North  Level Estimated
Fri 05:55:32 PM 33.8653 113.9281 18° North  Level Estimated
Fri 05:56:32 PM 33.9799 113.9732 18° North  Level Estimated
Fri 05:57:32 PM 34.0945 114.0184 18° North  Level Estimated
Fri 05:58:32 PM 34.2091 114.0637 18° North  Level Estimated
Fri 05:59:32 PM 34.3236 114.1092 18° North  Level Estimated
Fri 06:00:32 PM 34.4381 114.1548 18° North  Level Estimated
Fri 06:01:32 PM 34.5526 114.2005 18° North  Level Estimated
Fri 06:02:32 PM 34.6671 114.2463 18° North  Level Estimated
Fri 06:03:32 PM 34.7816 114.2922 18° North  Level Estimated
Fri 06:04:32 PM 34.8960 114.3383 18° North  Level Estimated
Fri 06:05:32 PM 35.0105 114.3845 18° North  Level Estimated
Fri 06:06:32 PM 35.1249 114.4308 18° North  Level Estimated
Fri 06:07:32 PM 35.2393 114.4773 18° North  Level Estimated
Fri 06:08:32 PM 35.3537 114.5239 18° North  Level Estimated
Fri 06:09:32 PM 35.4680 114.5706 18° North  Level Estimated
Fri 06:10:32 PM 35.5824 114.6175 18° North  Level Estimated
Fri 06:11:32 PM 35.6967 114.6645 18° North  Level Estimated
Fri 06:12:32 PM 35.8110 114.7116 19° North  Level Estimated
Fri 06:13:32 PM 35.9253 114.7589 19° North  Level Estimated
Fri 06:14:32 PM 36.0396 114.8063 19° North  Level Estimated
Fri 06:15:32 PM 36.1538 114.8538 19° North  Level Estimated
Fri 06:16:32 PM 36.2681 114.9015 19° North  Level Estimated
Fri 06:17:32 PM 36.3823 114.9493 19° North  Level Estimated
Fri 06:18:32 PM 36.4965 114.9973 19° North  Level Estimated
Fri 06:19:32 PM 36.6107 115.0454 19° North  Level Estimated
Fri 06:20:32 PM 36.7248 115.0936 19° North  Level Estimated
Fri 06:21:32 PM 36.8390 115.1420 19° North  Level Estimated
Fri 06:22:32 PM 36.9531 115.1905 19° North  Level Estimated
Fri 06:23:32 PM 37.0672 115.2392 19° North  Level Estimated
Fri 06:24:32 PM 37.1813 115.2880 19° North  Level Estimated
Fri 06:25:32 PM 37.2953 115.3370 19° North  Level Estimated
Fri 06:26:32 PM 37.4094 115.3861 19° North  Level Estimated
Fri 06:27:32 PM 37.5234 115.4354 19° North  Level Estimated
Fri 06:28:32 PM 37.6374 115.4848 19° North  Level Estimated
Fri 06:29:32 PM 37.7514 115.5344 19° North  Level Estimated
Fri 06:30:32 PM 37.8653 115.5841 19° North  Level Estimated
Fri 06:31:32 PM 37.9793 115.6340 19° North  Level Estimated
Fri 06:32:32 PM 38.0932 115.6840 19° North  Level Estimated
Fri 06:33:32 PM 38.2071 115.7342 19° North  Level Estimated
Fri 06:34:32 PM 38.3209 115.7846 19° North  Level Estimated
Fri 06:35:32 PM 38.4348 115.8351 19° North  Level Estimated
Fri 06:36:32 PM 38.5486 115.8857 19° North  Level Estimated
Fri 06:37:32 PM 38.6624 115.9366 19° North  Level Estimated
Fri 06:38:32 PM 38.7762 115.9876 19° North  Level Estimated
Fri 06:39:32 PM 38.8900 116.0387 19° North  Level Estimated
Fri 06:40:32 PM 39.0037 116.0900 19° North  Level Estimated
Fri 06:41:32 PM 39.1174 116.1415 19° North  Level Estimated
Fri 06:42:32 PM 39.2311 116.1932 19° North  Level Estimated
Fri 06:43:32 PM 39.3448 116.2450 19° North  Level Estimated
Fri 06:44:32 PM 39.4584 116.2970 19° North  Level Estimated
Fri 06:45:32 PM 39.5721 116.3491 20° North  Level Estimated

Login

Don't have an account? Register now (free) for customized features, flight alerts, and more!